createdAt,value
2023-03-25T04:55:54.785Z,80.40
2023-03-25T04:58:23.001Z,80.10
2023-03-25T05:00:52.823Z,79.70
2023-03-25T05:03:24.067Z,79.40
2023-03-25T05:05:52.844Z,79.00
2023-03-25T05:08:22.609Z,78.70
2023-03-25T05:10:51.138Z,78.80
2023-03-25T05:13:22.078Z,78.30
2023-03-25T05:15:50.022Z,78.50
2023-03-25T05:18:18.545Z,78.90
2023-03-25T09:24:27.960Z,77.40
2023-03-25T09:26:55.986Z,76.40
2023-03-25T09:29:25.588Z,72.40
2023-03-25T09:54:28.823Z,68.00
2023-03-25T09:57:00.422Z,67.70
2023-03-25T10:12:16.064Z,63.40
2023-03-25T10:15:02.163Z,62.60
2023-03-25T10:17:42.939Z,60.90
2023-03-25T10:20:19.002Z,59.20
2023-03-25T10:30:41.796Z,59.10
2023-03-25T10:55:34.906Z,57.70
2023-03-25T11:12:48.573Z,55.40
2023-03-25T11:15:31.130Z,55.60
2023-03-25T11:18:03.146Z,55.00
2023-03-25T11:20:49.937Z,55.00
2023-03-25T11:40:56.635Z,54.40
2023-03-25T11:43:29.498Z,53.00
2023-03-25T11:45:58.438Z,53.40
2023-03-25T11:48:32.953Z,51.50
2023-03-25T11:51:17.134Z,52.10
2023-03-25T11:53:51.293Z,51.50
2023-03-25T11:56:26.470Z,51.30
2023-03-25T11:59:01.828Z,50.20
2023-03-25T12:01:39.377Z,49.40
2023-03-25T12:04:13.155Z,49.00
2023-03-25T12:07:02.008Z,49.60
2023-03-25T12:09:32.837Z,50.20
2023-03-25T12:12:24.342Z,50.50
2023-03-25T12:15:05.521Z,52.00
2023-03-25T12:17:50.180Z,58.90
2023-03-25T12:20:33.363Z,62.60
2023-03-25T12:23:03.484Z,64.40
2023-03-25T12:25:53.674Z,64.70
2023-03-25T12:28:51.611Z,68.10
2023-03-25T12:31:32.476Z,66.10
2023-03-25T12:34:10.152Z,65.00
2023-03-25T12:36:54.400Z,66.00
2023-03-25T12:39:42.643Z,62.60
2023-03-25T12:42:21.834Z,59.60
2023-03-25T12:45:04.832Z,60.10
2023-03-25T12:47:36.831Z,55.90
2023-03-25T12:50:44.462Z,54.70
2023-03-25T12:53:32.855Z,53.40
2023-03-25T12:56:15.908Z,52.50
2023-03-25T12:59:02.355Z,52.10
2023-03-25T13:01:41.472Z,50.30
2023-03-25T13:07:33.455Z,57.20
2023-03-25T13:10:08.110Z,75.60
2023-03-25T13:13:00.247Z,99.50
2023-03-25T13:15:30.936Z,99.90
2023-03-25T13:18:04.503Z,99.90
2023-03-25T13:20:37.698Z,99.90
2023-03-25T13:23:10.438Z,99.90
2023-03-25T13:25:48.159Z,99.90
2023-03-25T13:28:20.187Z,99.90
2023-03-25T13:30:50.468Z,99.90
2023-03-25T13:33:28.739Z,99.90
2023-03-25T13:36:01.325Z,99.90
2023-03-25T13:38:34.002Z,99.90
2023-03-25T13:41:13.062Z,99.90
2023-03-25T13:43:50.510Z,99.90
2023-03-25T13:46:22.514Z,99.90
2023-03-25T13:48:55.301Z,99.90
2023-03-25T13:51:23.299Z,99.90
2023-03-25T13:53:56.177Z,99.90
2023-03-25T13:57:04.378Z,99.90
2023-03-25T14:00:00.323Z,99.90
2023-03-25T14:02:46.101Z,99.90
2023-03-25T14:05:41.193Z,99.90
2023-03-25T14:08:36.619Z,99.90
2023-03-25T14:11:18.053Z,97.40
2023-03-25T14:13:49.554Z,98.30
2023-03-25T14:16:23.384Z,95.40
2023-03-25T14:18:55.942Z,93.50
2023-03-25T14:21:32.452Z,92.70
2023-03-25T14:24:06.799Z,90.30
2023-03-25T14:26:37.786Z,90.60
2023-03-25T14:29:11.076Z,85.80
2023-03-25T14:31:38.978Z,85.70
2023-03-25T14:34:27.257Z,86.60
2023-03-25T14:37:19.935Z,84.20
2023-03-25T14:39:48.114Z,80.60
2023-03-25T14:42:30.952Z,75.50
2023-03-25T14:45:34.243Z,70.40
2023-03-25T14:48:04.637Z,68.40
2023-03-25T14:50:35.917Z,70.50
2023-03-25T14:53:07.325Z,67.80
2023-03-25T14:55:41.805Z,67.40
2023-03-25T14:58:25.815Z,69.70
2023-03-25T15:00:56.542Z,70.90
2023-03-25T15:03:33.798Z,70.90
2023-03-25T15:06:02.755Z,71.50
2023-03-25T15:08:36.933Z,71.50
2023-03-25T15:11:08.890Z,70.60
2023-03-25T15:13:39.819Z,70.10
2023-03-25T15:16:19.594Z,70.60
2023-03-25T15:19:09.057Z,70.50
2023-03-25T15:22:11.212Z,71.90
2023-03-25T15:24:41.282Z,71.50
2023-03-25T15:27:17.041Z,72.80
2023-03-25T15:29:56.649Z,73.10
2023-03-25T15:32:42.968Z,72.60
2023-03-25T15:35:36.582Z,73.10
2023-03-25T15:38:24.669Z,71.10
2023-03-25T15:41:10.786Z,68.80
2023-03-25T15:44:11.439Z,67.80
2023-03-25T15:47:29.707Z,67.70
2023-03-25T15:50:28.458Z,65.50
2023-03-25T15:53:41.505Z,64.00
2023-03-25T15:56:14.940Z,61.40
2023-03-25T15:58:51.418Z,60.10
2023-03-25T16:01:24.558Z,58.30
2023-03-25T16:03:59.216Z,57.20
2023-03-25T16:06:29.459Z,56.40
2023-03-25T16:08:59.485Z,51.00
2023-03-25T16:11:30.048Z,50.80
2023-03-25T16:14:08.375Z,49.50
2023-03-25T16:16:38.963Z,48.70
2023-03-25T16:19:12.356Z,49.70
2023-03-25T16:21:40.330Z,50.50
2023-03-25T16:24:12.619Z,52.20
2023-03-25T16:26:43.826Z,53.20
2023-03-25T16:29:30.390Z,53.90
2023-03-25T16:32:13.962Z,52.20
2023-03-25T16:34:42.064Z,53.30
2023-03-25T16:37:12.032Z,52.50
2023-03-25T16:39:42.029Z,52.60
2023-03-25T16:42:18.615Z,54.40
2023-03-25T16:44:49.531Z,55.40
2023-03-25T16:47:17.960Z,56.40
2023-03-25T16:49:50.060Z,56.90
2023-03-25T16:52:21.158Z,56.10
2023-03-25T16:57:42.286Z,56.00
2023-03-25T17:00:19.792Z,56.20
2023-03-25T17:02:57.135Z,55.50
2023-03-25T17:05:34.357Z,55.70
2023-03-25T17:08:19.435Z,56.30
2023-03-25T17:10:54.685Z,56.90
2023-03-25T17:13:33.218Z,57.60
2023-03-25T17:16:02.567Z,58.00
2023-03-25T17:18:35.835Z,58.40
2023-03-25T17:21:06.580Z,58.50
2023-03-25T17:23:36.544Z,59.10
2023-03-25T17:26:19.936Z,59.50
2023-03-25T17:29:13.269Z,59.80
2023-03-25T17:32:08.240Z,60.10
2023-03-25T17:34:42.812Z,60.70
2023-03-25T17:37:20.413Z,61.30
2023-03-25T17:39:51.054Z,63.00
2023-03-25T17:42:37.265Z,64.60
2023-03-25T17:45:50.447Z,67.00
2023-03-25T17:48:18.660Z,69.10
2023-03-25T17:51:09.624Z,71.90
2023-03-25T17:53:44.320Z,72.50
2023-03-25T17:56:13.842Z,73.90
2023-03-25T17:59:21.038Z,74.10
2023-03-25T18:02:02.198Z,74.70
2023-03-25T18:05:00.399Z,74.20
2023-03-25T18:16:17.541Z,72.40
2023-03-25T18:35:58.722Z,72.80
2023-03-25T18:39:01.616Z,91.10
2023-03-25T18:41:45.078Z,92.60
2023-03-25T18:44:20.107Z,94.30
2023-03-25T18:46:50.293Z,93.30
2023-03-25T18:49:23.307Z,93.50
2023-03-25T18:52:10.362Z,93.40
2023-03-25T18:55:02.905Z,91.10
2023-03-25T18:57:56.829Z,90.20
2023-03-25T19:00:27.795Z,90.20
2023-03-25T19:03:05.163Z,89.80
2023-03-25T19:06:20.443Z,89.50
2023-03-25T19:09:16.223Z,88.00
2023-03-25T19:11:52.400Z,87.40
2023-03-25T19:14:28.363Z,86.40
2023-03-25T19:17:03.922Z,85.00
2023-03-25T19:19:32.207Z,84.00
2023-03-25T19:22:00.292Z,84.70
2023-03-25T19:24:29.458Z,86.40
2023-03-25T19:26:57.459Z,87.00
2023-03-25T19:29:25.332Z,88.60
2023-03-25T19:31:53.249Z,88.80
2023-03-25T19:34:22.091Z,89.00
2023-03-25T19:36:50.245Z,88.60
2023-03-25T19:39:18.654Z,86.80
2023-03-25T19:41:49.470Z,86.70
2023-03-25T19:44:17.236Z,87.20
2023-03-25T19:46:45.096Z,88.40
2023-03-25T19:49:12.807Z,89.20
2023-03-25T19:51:43.089Z,89.70
2023-03-25T19:54:13.582Z,90.10
2023-03-25T19:56:42.137Z,90.30
2023-03-25T19:59:19.695Z,90.50
2023-03-25T20:01:49.777Z,90.40
2023-03-25T20:04:17.799Z,90.10
2023-03-25T20:06:59.925Z,90.20
2023-03-25T20:09:41.904Z,90.30
2023-03-25T20:12:41.507Z,90.20
2023-03-25T20:15:21.240Z,89.10
2023-03-25T20:17:55.436Z,88.10
2023-03-25T20:20:34.517Z,87.20
2023-03-25T20:23:08.577Z,86.60
2023-03-25T20:25:39.309Z,86.00
2023-03-25T20:28:07.078Z,85.70
2023-03-25T20:30:36.246Z,85.20
2023-03-25T20:33:04.501Z,85.20
2023-03-25T20:35:32.728Z,84.60
2023-03-25T20:38:00.533Z,84.40
2023-03-25T20:40:41.556Z,83.90
2023-03-25T20:43:36.958Z,84.00
2023-03-25T20:46:53.863Z,83.90
2023-03-25T20:49:24.180Z,83.50
2023-03-25T20:54:49.338Z,83.00
2023-03-25T20:57:17.460Z,82.80
2023-03-25T20:59:59.361Z,83.20
2023-03-25T21:02:41.665Z,82.80
2023-03-25T21:05:31.841Z,82.70
2023-03-25T21:07:59.686Z,82.90
2023-03-25T21:11:08.330Z,82.70
2023-03-25T21:14:05.942Z,82.90
2023-03-25T21:16:56.464Z,83.10
2023-03-25T21:23:44.608Z,83.30
2023-03-25T21:26:13.343Z,83.70
2023-03-25T21:29:00.649Z,83.90
2023-03-25T21:31:41.404Z,84.00
2023-03-25T21:34:45.991Z,84.40
2023-03-25T21:37:58.831Z,84.70
2023-03-25T21:40:49.158Z,84.80
2023-03-25T21:43:18.698Z,85.30
2023-03-25T21:53:52.040Z,83.90
2023-03-25T21:57:22.135Z,82.70
